createdAt,value
2023-04-22T00:00:15.787Z,12.30
2023-04-22T00:02:44.461Z,12.20
2023-04-22T00:05:15.703Z,12.20
2023-04-22T00:07:45.167Z,12.20
2023-04-22T00:10:13.094Z,12.10
2023-04-22T00:12:42.298Z,12.20
2023-04-22T00:15:11.478Z,12.10
2023-04-22T00:17:40.197Z,12.20
2023-04-22T00:20:10.827Z,12.20
2023-04-22T00:22:38.686Z,12.20
2023-04-22T00:25:07.426Z,12.20
2023-04-22T00:27:35.313Z,12.10
2023-04-22T00:30:04.884Z,12.10
2023-04-22T00:32:32.870Z,12.00
2023-04-22T00:35:00.874Z,12.00
2023-04-22T00:37:28.871Z,12.10
2023-04-22T00:39:57.919Z,12.00
2023-04-22T00:42:27.153Z,11.90
2023-04-22T00:44:55.776Z,11.80
2023-04-22T00:47:27.049Z,11.80
2023-04-22T00:49:55.355Z,11.70
2023-04-22T00:52:23.183Z,11.70
2023-04-22T00:54:52.438Z,11.70
2023-04-22T00:57:20.400Z,11.60
2023-04-22T00:59:48.780Z,11.60
2023-04-22T01:02:16.761Z,11.60
2023-04-22T01:04:46.246Z,11.60
2023-04-22T01:07:14.224Z,11.60
2023-04-22T01:09:42.706Z,11.50
2023-04-22T01:12:10.581Z,11.50
2023-04-22T01:14:38.913Z,11.50
2023-04-22T01:17:10.666Z,11.50
2023-04-22T01:19:39.046Z,11.50
2023-04-22T01:22:09.784Z,11.50
2023-04-22T01:24:39.189Z,11.50
2023-04-22T01:27:07.138Z,11.50
2023-04-22T01:29:37.239Z,11.40
2023-04-22T01:32:05.732Z,11.30
2023-04-22T01:34:34.288Z,11.20
2023-04-22T01:37:02.103Z,11.10
2023-04-22T01:39:30.725Z,11.00
2023-04-22T01:42:02.141Z,11.00
2023-04-22T01:44:30.214Z,10.90
2023-04-22T01:46:58.117Z,10.90
2023-04-22T01:49:26.030Z,10.90
2023-04-22T01:51:53.859Z,10.90
2023-04-22T01:54:22.139Z,10.90
2023-04-22T01:56:58.444Z,10.90
2023-04-22T01:59:27.815Z,10.90
2023-04-22T02:01:55.647Z,11.00
2023-04-22T02:04:23.474Z,11.00
2023-04-22T02:06:51.280Z,11.00
2023-04-22T02:09:19.261Z,10.90
2023-04-22T02:11:47.255Z,10.90
2023-04-22T02:14:15.532Z,10.90
2023-04-22T02:16:44.797Z,10.80
2023-04-22T02:19:12.944Z,10.80
2023-04-22T02:21:41.385Z,10.80
2023-04-22T02:24:09.897Z,10.80
2023-04-22T02:26:37.790Z,10.80
2023-04-22T02:29:07.788Z,10.80
2023-04-22T02:31:35.759Z,10.80
2023-04-22T02:34:05.205Z,10.70
2023-04-22T02:36:34.548Z,10.70
2023-04-22T02:39:03.390Z,10.70
2023-04-22T02:41:31.266Z,10.70
2023-04-22T02:43:59.108Z,10.70
2023-04-22T02:46:27.076Z,10.70
2023-04-22T02:48:54.908Z,10.70
2023-04-22T02:51:24.182Z,10.60
2023-04-22T02:53:52.057Z,10.60
2023-04-22T02:56:19.860Z,10.60
2023-04-22T02:58:47.808Z,10.50
2023-04-22T03:01:16.050Z,10.50
2023-04-22T03:03:44.199Z,10.50
2023-04-22T03:06:12.265Z,10.50
2023-04-22T03:08:41.457Z,10.60
2023-04-22T03:11:09.286Z,10.60
2023-04-22T03:13:37.116Z,10.50
2023-04-22T03:16:05.073Z,10.50
2023-04-22T03:18:33.042Z,10.40
2023-04-22T03:21:01.256Z,10.40
2023-04-22T03:23:29.099Z,10.30
2023-04-22T03:25:58.347Z,10.20
2023-04-22T03:28:26.220Z,10.10
2023-04-22T03:30:54.107Z,10.10
2023-04-22T03:33:22.406Z,10.00
2023-04-22T03:35:50.318Z,10.00
2023-04-22T03:38:18.285Z,9.90
2023-04-22T03:40:46.332Z,9.80
2023-04-22T03:43:15.476Z,9.80
2023-04-22T03:45:45.528Z,9.80
2023-04-22T03:48:13.385Z,9.70
2023-04-22T03:50:41.258Z,9.60
2023-04-22T03:53:09.074Z,9.60
2023-04-22T03:55:36.929Z,9.50
2023-04-22T03:58:04.812Z,9.50
2023-04-22T04:00:34.042Z,9.50
2023-04-22T04:03:02.084Z,9.50
2023-04-22T04:05:30.262Z,9.40
2023-04-22T04:07:58.492Z,9.40
2023-04-22T04:10:26.780Z,9.40
2023-04-22T04:12:55.041Z,9.40
2023-04-22T04:15:22.997Z,9.30
2023-04-22T04:17:52.255Z,9.40
2023-04-22T04:20:20.233Z,9.30
2023-04-22T04:22:48.117Z,9.30
2023-04-22T04:25:16.052Z,9.30
2023-04-22T04:27:44.006Z,9.20
2023-04-22T04:30:12.352Z,9.20
2023-04-22T04:32:40.346Z,9.20
2023-04-22T04:35:12.935Z,9.20
2023-04-22T04:37:40.883Z,9.10
2023-04-22T04:40:10.364Z,9.10
2023-04-22T04:42:38.604Z,9.10
2023-04-22T04:45:07.653Z,9.10
2023-04-22T04:47:35.576Z,9.10
2023-04-22T04:50:04.370Z,9.10
2023-04-22T04:52:33.604Z,9.20
2023-04-22T04:55:01.447Z,9.30
2023-04-22T04:57:29.691Z,9.30
2023-04-22T04:59:57.604Z,9.20
2023-04-22T05:02:25.796Z,9.20
2023-04-22T05:04:53.947Z,9.20
2023-04-22T05:07:21.883Z,9.30
2023-04-22T05:09:51.117Z,9.30
2023-04-22T05:12:19.024Z,9.40
2023-04-22T05:14:47.027Z,9.50
2023-04-22T05:17:15.110Z,9.50
2023-04-22T05:19:42.989Z,9.60
2023-04-22T05:22:11.248Z,9.60
2023-04-22T05:24:39.108Z,9.70
2023-04-22T05:27:09.230Z,9.60
2023-04-22T05:29:37.270Z,9.60
2023-04-22T05:32:05.294Z,9.60
2023-04-22T05:34:33.326Z,9.70
2023-04-22T05:37:01.185Z,9.70
2023-04-22T05:39:29.023Z,9.70
2023-04-22T05:41:56.938Z,9.80
2023-04-22T05:44:26.251Z,9.80
2023-04-22T05:46:54.152Z,10.00
2023-04-22T05:49:22.098Z,10.00
2023-04-22T05:51:51.253Z,10.00
2023-04-22T05:54:19.469Z,10.10
2023-04-22T05:56:47.626Z,10.20
2023-04-22T05:59:16.020Z,10.20
2023-04-22T06:01:45.437Z,10.30
2023-04-22T06:04:13.481Z,10.40
2023-04-22T06:06:41.589Z,10.50
2023-04-22T06:09:09.478Z,10.60
2023-04-22T06:11:37.479Z,10.80
2023-04-22T06:14:05.403Z,11.00
2023-04-22T06:16:34.455Z,11.30
2023-04-22T06:19:03.687Z,11.60
2023-04-22T06:21:32.512Z,11.80
2023-04-22T06:24:01.248Z,12.00
2023-04-22T06:26:29.772Z,12.10
2023-04-22T06:28:57.631Z,12.30
2023-04-22T06:31:25.484Z,12.40
2023-04-22T06:33:53.335Z,12.50
2023-04-22T06:36:22.490Z,12.60
2023-04-22T06:38:50.450Z,12.60
2023-04-22T06:41:18.474Z,12.60
2023-04-22T06:43:46.628Z,12.60
2023-04-22T06:46:14.495Z,12.70
2023-04-22T06:48:42.381Z,12.70
2023-04-22T06:51:10.381Z,12.90
2023-04-22T06:53:39.675Z,13.00
2023-04-22T06:56:08.335Z,13.10
2023-04-22T06:58:36.179Z,13.10
2023-04-22T07:01:04.068Z,13.20
2023-04-22T07:03:32.153Z,13.20
2023-04-22T07:06:00.513Z,13.30
2023-04-22T07:08:28.479Z,13.50
2023-04-22T07:10:58.620Z,13.50
2023-04-22T07:13:27.175Z,13.50
2023-04-22T07:15:55.141Z,13.60
2023-04-22T07:18:22.994Z,13.60
2023-04-22T07:20:50.917Z,13.70
2023-04-22T07:23:19.089Z,13.70
2023-04-22T07:25:47.057Z,13.70
2023-04-22T07:28:16.272Z,13.80
2023-04-22T07:30:44.293Z,13.80
2023-04-22T07:33:12.130Z,13.80
2023-04-22T07:35:40.036Z,13.90
2023-04-22T07:38:09.275Z,14.00
2023-04-22T07:40:37.750Z,14.10
2023-04-22T07:43:06.164Z,14.30
2023-04-22T07:45:35.550Z,14.40
2023-04-22T07:48:03.805Z,14.50
2023-04-22T07:50:31.783Z,14.60
2023-04-22T07:53:00.539Z,14.70
2023-04-22T07:55:28.664Z,14.90
2023-04-22T07:57:56.567Z,15.00
2023-04-22T08:00:24.495Z,15.20
2023-04-22T08:02:55.960Z,15.20
2023-04-22T08:05:24.148Z,15.30
2023-04-22T08:07:52.199Z,15.40
2023-04-22T08:10:20.239Z,15.60
2023-04-22T08:12:48.429Z,15.80
2023-04-22T08:15:16.846Z,16.00
2023-04-22T08:17:44.834Z,16.20
2023-04-22T08:20:15.518Z,16.20
2023-04-22T08:22:44.338Z,16.20
2023-04-22T08:25:12.749Z,16.30
2023-04-22T08:27:40.985Z,16.60
2023-04-22T08:30:10.019Z,16.80
2023-04-22T08:32:40.897Z,16.90
2023-04-22T08:35:09.548Z,16.70
2023-04-22T08:37:40.516Z,16.80
2023-04-22T08:40:09.747Z,16.90
2023-04-22T08:42:38.735Z,17.00
2023-04-22T08:45:09.751Z,17.10
2023-04-22T08:47:38.963Z,17.40
2023-04-22T08:50:09.648Z,17.50
2023-04-22T08:52:39.070Z,17.70
2023-04-22T08:55:07.989Z,17.80
2023-04-22T08:57:37.852Z,17.90
2023-04-22T09:00:08.701Z,17.80
2023-04-22T09:02:38.301Z,17.80
2023-04-22T09:05:09.430Z,17.70
2023-04-22T09:07:40.907Z,17.50
2023-04-22T09:10:11.847Z,17.40
2023-04-22T09:12:41.680Z,17.40
2023-04-22T09:15:10.708Z,17.50
2023-04-22T09:17:39.193Z,17.50
2023-04-22T09:20:08.820Z,17.50
2023-04-22T09:22:43.760Z,17.70
2023-04-22T09:25:21.577Z,18.00
2023-04-22T09:27:51.554Z,18.40
2023-04-22T09:30:23.821Z,18.70
2023-04-22T09:32:56.029Z,18.90
2023-04-22T09:35:32.100Z,19.00
2023-04-22T09:38:02.880Z,18.90
2023-04-22T09:40:31.834Z,18.70
2023-04-22T09:43:01.990Z,18.70
2023-04-22T09:45:39.891Z,18.70
2023-04-22T09:48:10.641Z,18.90
2023-04-22T09:50:42.195Z,19.20
2023-04-22T09:53:13.554Z,19.30
2023-04-22T09:55:43.389Z,19.30
2023-04-22T09:58:12.606Z,19.30
2023-04-22T10:00:43.488Z,19.60
2023-04-22T10:03:11.715Z,19.60
2023-04-22T10:05:40.882Z,19.70
2023-04-22T10:08:11.723Z,19.80
2023-04-22T10:10:40.838Z,19.90
2023-04-22T10:13:09.566Z,19.90
2023-04-22T10:15:41.343Z,20.10
2023-04-22T10:18:12.795Z,20.10
2023-04-22T10:20:43.718Z,20.00
2023-04-22T10:23:24.135Z,20.00
2023-04-22T10:25:55.197Z,20.00
2023-04-22T10:28:27.098Z,20.30
2023-04-22T10:30:55.686Z,20.50
2023-04-22T10:33:44.738Z,20.70
2023-04-22T10:36:18.307Z,20.70
2023-04-22T10:39:18.025Z,20.90
2023-04-22T10:41:52.933Z,20.90
2023-04-22T10:44:21.875Z,20.90
2023-04-22T10:47:00.884Z,21.20
2023-04-22T10:49:32.637Z,21.20
2023-04-22T10:52:01.452Z,21.30
2023-04-22T10:55:02.138Z,21.50
2023-04-22T10:57:37.542Z,21.60
2023-04-22T11:00:31.003Z,21.70
2023-04-22T11:03:18.248Z,21.80
2023-04-22T11:05:46.780Z,21.90
2023-04-22T11:08:20.569Z,22.00
2023-04-22T11:10:51.295Z,22.40
2023-04-22T11:13:21.241Z,22.40
2023-04-22T11:15:50.787Z,22.30
2023-04-22T11:18:21.184Z,22.30
2023-04-22T11:20:50.744Z,22.40
2023-04-22T11:23:23.654Z,22.40
2023-04-22T11:25:57.795Z,22.40
2023-04-22T11:28:25.992Z,22.50
2023-04-22T11:30:54.624Z,22.60
2023-04-22T11:33:22.781Z,22.70
2023-04-22T11:35:51.869Z,22.70
2023-04-22T11:38:19.767Z,23.00
2023-04-22T11:40:48.342Z,23.00
2023-04-22T11:43:18.847Z,23.00
2023-04-22T11:45:47.027Z,23.00
2023-04-22T11:48:16.687Z,22.90
2023-04-22T11:50:46.178Z,23.00
2023-04-22T11:53:16.524Z,23.10
2023-04-22T11:55:45.643Z,23.40
2023-04-22T11:58:15.715Z,23.20
2023-04-22T12:00:46.821Z,22.90
2023-04-22T12:03:16.686Z,23.20
2023-04-22T12:05:47.085Z,23.50
2023-04-22T12:08:16.842Z,23.50
2023-04-22T12:10:46.231Z,23.10
2023-04-22T12:13:20.975Z,22.80
2023-04-22T12:15:54.743Z,22.70
2023-04-22T12:18:30.449Z,22.40
2023-04-22T12:21:02.191Z,22.10
2023-04-22T12:23:30.107Z,22.00
2023-04-22T12:25:58.254Z,21.90
2023-04-22T12:28:26.080Z,21.80
2023-04-22T12:30:55.768Z,21.70
2023-04-22T12:33:23.647Z,21.60
2023-04-22T12:35:52.683Z,21.50
2023-04-22T12:38:20.886Z,21.40
2023-04-22T12:40:48.821Z,21.30
2023-04-22T12:43:16.720Z,21.30
2023-04-22T12:45:44.803Z,21.30
2023-04-22T12:48:14.540Z,21.30
2023-04-22T12:50:42.682Z,21.20
2023-04-22T12:53:10.788Z,21.20
2023-04-22T12:55:38.708Z,21.20
2023-04-22T12:58:06.820Z,21.20
2023-04-22T13:00:34.683Z,21.10
2023-04-22T13:03:03.044Z,21.10
2023-04-22T13:05:32.501Z,21.00
2023-04-22T13:08:07.078Z,21.00
2023-04-22T13:10:36.134Z,21.00
2023-04-22T13:13:17.496Z,21.00
2023-04-22T13:15:46.212Z,20.80
2023-04-22T13:18:14.486Z,20.70
2023-04-22T13:20:43.874Z,20.60
2023-04-22T13:23:13.281Z,20.50
2023-04-22T13:25:41.333Z,20.50
2023-04-22T13:28:11.187Z,20.40
2023-04-22T13:30:39.284Z,20.30
2023-04-22T13:33:07.239Z,20.20
2023-04-22T13:35:35.484Z,20.20
2023-04-22T13:38:05.109Z,20.00
2023-04-22T13:40:33.154Z,19.90
2023-04-22T13:43:00.986Z,19.90
2023-04-22T13:45:28.879Z,19.80
2023-04-22T13:47:56.941Z,19.80
2023-04-22T13:50:24.936Z,19.80
2023-04-22T13:52:52.885Z,19.80
2023-04-22T13:55:22.165Z,19.90
2023-04-22T13:57:51.798Z,19.90
2023-04-22T14:00:20.596Z,20.00
2023-04-22T14:02:48.974Z,20.10
2023-04-22T14:05:17.332Z,20.10
2023-04-22T14:07:45.341Z,20.00
2023-04-22T14:10:13.817Z,20.00
2023-04-22T14:12:44.320Z,20.00
2023-04-22T14:15:12.248Z,20.00
2023-04-22T14:17:40.763Z,20.00
2023-04-22T14:20:11.270Z,20.00
2023-04-22T14:22:39.251Z,20.00
2023-04-22T14:25:08.279Z,20.00
2023-04-22T14:27:36.160Z,20.00
2023-04-22T14:30:08.379Z,19.90
2023-04-22T14:32:36.969Z,19.80
2023-04-22T14:35:05.185Z,19.80
2023-04-22T14:37:33.065Z,19.80
2023-04-22T14:40:01.840Z,19.80
2023-04-22T14:42:29.891Z,19.80
2023-04-22T14:44:58.169Z,19.80
2023-04-22T14:47:28.512Z,19.80
2023-04-22T14:49:56.488Z,19.80
2023-04-22T14:52:24.490Z,19.80
2023-04-22T14:54:52.544Z,19.90
2023-04-22T14:57:20.654Z,19.90
2023-04-22T14:59:48.472Z,20.00
2023-04-22T15:02:16.924Z,20.10
2023-04-22T15:04:46.386Z,20.30
2023-04-22T15:07:14.308Z,20.40
2023-04-22T15:09:42.397Z,20.40
2023-04-22T15:12:10.805Z,20.40
2023-04-22T15:14:38.924Z,20.40
2023-04-22T15:17:07.255Z,20.40
2023-04-22T15:19:35.244Z,20.30
2023-04-22T15:22:04.500Z,20.20
2023-04-22T15:24:32.408Z,20.20
2023-04-22T15:27:00.727Z,20.20
2023-04-22T15:29:29.728Z,20.20
2023-04-22T15:31:57.924Z,20.20
2023-04-22T15:34:26.292Z,20.30
2023-04-22T15:36:54.691Z,20.50
2023-04-22T15:39:26.550Z,20.60
2023-04-22T15:41:54.607Z,20.60
2023-04-22T15:44:23.520Z,20.70
2023-04-22T15:46:52.811Z,20.70
2023-04-22T15:49:20.952Z,20.80
2023-04-22T15:51:48.881Z,20.90
2023-04-22T15:54:16.792Z,21.00
2023-04-22T15:56:46.027Z,21.10
2023-04-22T15:59:13.914Z,21.10
2023-04-22T16:01:42.746Z,21.20
2023-04-22T16:04:12.713Z,21.20
2023-04-22T16:06:41.120Z,21.20
2023-04-22T16:09:09.204Z,21.00
2023-04-22T16:11:37.155Z,21.00
2023-04-22T16:14:06.340Z,21.00
2023-04-22T16:16:34.304Z,20.90
2023-04-22T16:19:02.217Z,20.80
2023-04-22T16:21:32.149Z,20.70
2023-04-22T16:24:00.834Z,20.60
2023-04-22T16:26:28.825Z,20.50
2023-04-22T16:28:56.646Z,20.40
2023-04-22T16:31:26.184Z,20.30
2023-04-22T16:33:54.097Z,20.30
2023-04-22T16:36:22.493Z,20.30
2023-04-22T16:38:50.350Z,20.20
2023-04-22T16:41:18.229Z,20.30
2023-04-22T16:43:46.218Z,20.30
2023-04-22T16:46:14.278Z,20.30
2023-04-22T16:48:43.822Z,20.20
2023-04-22T16:51:12.086Z,20.10
2023-04-22T16:53:40.127Z,20.10
2023-04-22T16:56:08.098Z,20.00
2023-04-22T16:58:35.987Z,19.90
2023-04-22T17:01:04.215Z,19.90
2023-04-22T17:03:32.464Z,19.90
2023-04-22T17:06:01.804Z,19.90
2023-04-22T17:08:29.682Z,19.90
2023-04-22T17:10:57.656Z,19.90
2023-04-22T17:13:25.568Z,19.80
2023-04-22T17:15:53.468Z,19.70
2023-04-22T17:18:21.494Z,19.70
2023-04-22T17:20:49.857Z,19.60
2023-04-22T17:23:19.799Z,19.50
2023-04-22T17:25:47.897Z,19.50
2023-04-22T17:28:15.811Z,19.40
2023-04-22T17:30:44.955Z,19.30
2023-04-22T17:33:13.144Z,19.30
2023-04-22T17:35:41.101Z,19.20
2023-04-22T17:38:08.981Z,19.20
2023-04-22T17:40:38.797Z,19.20
2023-04-22T17:43:06.758Z,19.10
2023-04-22T17:45:34.695Z,19.00
2023-04-22T17:48:02.796Z,18.90
2023-04-22T17:50:30.750Z,18.80
2023-04-22T17:52:58.855Z,18.70
2023-04-22T17:55:26.734Z,18.60
2023-04-22T17:57:56.197Z,18.60
2023-04-22T18:00:24.384Z,18.60
2023-04-22T18:02:52.617Z,18.50
2023-04-22T18:05:21.243Z,18.40
2023-04-22T18:07:49.291Z,18.30
2023-04-22T18:10:17.192Z,18.30
2023-04-22T18:12:45.306Z,18.20
2023-04-22T18:15:14.533Z,18.20
2023-04-22T18:17:42.485Z,18.10
2023-04-22T18:20:18.170Z,18.00
2023-04-22T18:22:47.338Z,18.00
2023-04-22T18:25:15.942Z,17.90
2023-04-22T18:27:44.601Z,17.90
2023-04-22T18:30:14.389Z,17.80
2023-04-22T18:32:42.469Z,17.80
2023-04-22T18:35:11.305Z,17.70
2023-04-22T18:37:39.200Z,17.70
2023-04-22T18:40:09.445Z,17.60
2023-04-22T18:42:37.409Z,17.50
2023-04-22T18:45:09.117Z,17.50
2023-04-22T18:47:38.480Z,17.50
2023-04-22T18:50:07.433Z,17.40
2023-04-22T18:52:35.484Z,17.30
2023-04-22T18:55:03.502Z,17.20
2023-04-22T18:57:31.816Z,17.20
2023-04-22T18:59:59.639Z,17.10
2023-04-22T19:02:27.871Z,17.10
2023-04-22T19:04:57.746Z,17.10
2023-04-22T19:07:25.636Z,17.10
2023-04-22T19:09:53.527Z,17.00
2023-04-22T19:12:21.369Z,17.00
2023-04-22T19:14:49.202Z,17.00
2023-04-22T19:17:17.180Z,17.00
2023-04-22T19:19:45.407Z,16.90
2023-04-22T19:22:16.136Z,16.90
2023-04-22T19:24:44.086Z,16.80
2023-04-22T19:27:13.350Z,16.80
2023-04-22T19:29:41.967Z,16.70
2023-04-22T19:32:11.012Z,16.70
2023-04-22T19:34:39.468Z,16.60
2023-04-22T19:37:08.160Z,16.60
2023-04-22T19:39:37.507Z,16.50
2023-04-22T19:42:06.067Z,16.40
2023-04-22T19:44:34.002Z,16.30
2023-04-22T19:47:01.980Z,16.30
2023-04-22T19:49:32.667Z,16.20
2023-04-22T19:52:02.681Z,16.20
2023-04-22T19:54:31.232Z,16.20
2023-04-22T19:57:02.108Z,16.10
2023-04-22T19:59:31.738Z,16.10
2023-04-22T20:02:00.335Z,16.10
2023-04-22T20:04:29.052Z,16.10
2023-04-22T20:06:58.547Z,16.00
2023-04-22T20:09:27.949Z,16.00
2023-04-22T20:11:56.813Z,15.90
2023-04-22T20:14:27.030Z,15.90
2023-04-22T20:16:55.435Z,15.90
2023-04-22T20:19:23.507Z,15.80
2023-04-22T20:21:53.403Z,15.80
2023-04-22T20:24:22.131Z,15.70
2023-04-22T20:26:50.453Z,15.70
2023-04-22T20:29:18.828Z,15.60
2023-04-22T20:31:48.657Z,15.50
2023-04-22T20:34:16.729Z,15.40
2023-04-22T20:36:44.883Z,15.30
2023-04-22T20:39:15.054Z,15.10
2023-04-22T20:41:43.544Z,15.10
2023-04-22T20:44:11.442Z,14.90
2023-04-22T20:46:39.361Z,14.90
2023-04-22T20:49:09.588Z,14.80
2023-04-22T20:51:37.516Z,14.70
2023-04-22T20:54:09.819Z,14.70
2023-04-22T20:56:45.564Z,14.90
2023-04-22T20:59:13.476Z,14.90
2023-04-22T21:01:41.858Z,14.90
2023-04-22T21:04:11.323Z,14.90
2023-04-22T21:06:39.434Z,14.80
2023-04-22T21:09:10.471Z,14.80
2023-04-22T21:11:39.200Z,14.70
2023-04-22T21:14:07.561Z,14.60
2023-04-22T21:16:40.893Z,14.60
2023-04-22T21:19:09.051Z,14.60
2023-04-22T21:21:39.887Z,14.60
2023-04-22T21:24:08.800Z,14.60
2023-04-22T21:26:40.005Z,14.50
2023-04-22T21:29:08.389Z,14.50
2023-04-22T21:31:37.735Z,14.50
2023-04-22T21:34:08.493Z,14.50
2023-04-22T21:36:38.005Z,14.50
2023-04-22T21:39:05.965Z,14.50
2023-04-22T21:41:33.853Z,14.40
2023-04-22T21:44:01.832Z,14.40
2023-04-22T21:46:29.689Z,14.40
2023-04-22T21:49:00.306Z,14.40
2023-04-22T21:51:28.656Z,14.30
2023-04-22T21:53:57.940Z,14.30
2023-04-22T21:56:26.550Z,14.40
2023-04-22T21:58:55.572Z,14.30
2023-04-22T22:01:23.484Z,14.30
2023-04-22T22:03:51.763Z,14.20
2023-04-22T22:06:19.822Z,14.20
2023-04-22T22:08:49.868Z,14.30
2023-04-22T22:11:30.263Z,14.40
2023-04-22T22:13:59.167Z,14.40
2023-04-22T22:16:27.226Z,14.40
2023-04-22T22:18:55.725Z,14.30
2023-04-22T22:21:23.592Z,14.20
2023-04-22T22:23:51.819Z,14.20
2023-04-22T22:26:21.084Z,14.20
2023-04-22T22:28:49.047Z,14.20
2023-04-22T22:31:16.970Z,14.10
2023-04-22T22:33:44.901Z,14.20
2023-04-22T22:36:12.840Z,14.20
2023-04-22T22:38:41.180Z,14.10
2023-04-22T22:41:09.050Z,14.10
2023-04-22T22:43:38.280Z,14.10
2023-04-22T22:46:06.240Z,14.10
2023-04-22T22:48:34.516Z,14.10
2023-04-22T22:51:02.480Z,14.10
2023-04-22T22:53:30.384Z,14.10
2023-04-22T22:55:58.228Z,14.10
2023-04-22T22:58:26.197Z,14.00
2023-04-22T23:00:56.216Z,14.00
2023-04-22T23:03:24.509Z,14.00
2023-04-22T23:05:52.844Z,14.00
2023-04-22T23:08:20.729Z,14.10
2023-04-22T23:10:48.852Z,14.00
2023-04-22T23:13:16.700Z,14.00
2023-04-22T23:15:44.625Z,14.00
2023-04-22T23:18:14.308Z,14.10
2023-04-22T23:20:44.128Z,14.10
2023-04-22T23:23:13.712Z,14.10
2023-04-22T23:25:42.100Z,14.20
2023-04-22T23:28:10.426Z,14.10
2023-04-22T23:30:39.002Z,14.10
2023-04-22T23:33:10.497Z,14.10
2023-04-22T23:35:41.943Z,14.00
2023-04-22T23:38:11.685Z,14.00
2023-04-22T23:40:39.499Z,14.00
2023-04-22T23:43:07.374Z,13.90
2023-04-22T23:45:35.322Z,13.90
2023-04-22T23:48:03.300Z,13.80
2023-04-22T23:50:31.225Z,13.80
2023-04-22T23:53:00.441Z,13.70
2023-04-22T23:55:29.054Z,13.70
2023-04-22T23:57:57.916Z,13.60
